Pagina principale
METAR-TAF:

METAR-TAF

Aeroporti :

Aeroporto di Torino-Aeritalia

Torino, Italia

latitudine: 45-05-20N, longitudine: 007-36-20E, altezza: 288 m

Osservazione

Il bollettino è stato emesso 5 ore e 42 minuti fa, alle 15:50 UTC
Vento 3 kt da nord/nord-est, variando fra nord e est
Temperature 14°C
Umidità 55%
Pressione 1021 hPa
Visibilità: 4000 m
foschia,

METAR: LIMA 211550Z 03003KT 360V080 4000 HZ NSC 14/05 Q1021

Ora: 22:32 (21:32 UTC)


TAF: mancante

Osservazioni e previsioni meteorologiche di più di 4000 aeroporti (messaggi METAR e TAF).

Le stazioni disponibili sono rappresentate dai dischi gialli e rossi sulla carta.

Puntare il mouse per vedere il nome della stazione.

Clicca sopra per visualizzare le osservazioni e previsioni meteorologiche.

Per cambiare la mappa : fare clic sui pulsanti verdi con una croce nera per ingrandire, il pulsante verde con un trattino per diminuire, o sulla freccia verde per le mappe adiacenti.


METAR-TAF: